createdAt,value
2022-12-18T00:01:30.251Z,102760.19
2022-12-18T00:03:58.012Z,102753.28
2022-12-18T00:06:28.275Z,102774.03
2022-12-18T00:08:57.628Z,102770.50
2022-12-18T00:11:28.866Z,102771.31
2022-12-18T00:13:58.748Z,102772.09
2022-12-18T00:16:28.339Z,102758.22
2022-12-18T00:18:57.645Z,102749.50
2022-12-18T00:21:25.313Z,102754.69
2022-12-18T00:23:53.691Z,102750.28
2022-12-18T00:26:23.096Z,102771.00
2022-12-18T00:28:52.949Z,102757.06
2022-12-18T00:31:23.161Z,102760.50
2022-12-18T00:33:53.962Z,102763.97
2022-12-18T00:36:24.929Z,102767.44
2022-12-18T00:38:52.733Z,102769.19
2022-12-18T00:41:34.604Z,102767.47
2022-12-18T00:44:04.054Z,102764.91
2022-12-18T00:46:31.827Z,102773.56
2022-12-18T00:48:59.575Z,102775.31
2022-12-18T00:51:27.650Z,102777.03
2022-12-18T00:53:55.803Z,102771.84
2022-12-18T00:56:23.448Z,102767.53
2022-12-18T00:58:51.811Z,102760.59
2022-12-18T01:01:21.682Z,102767.47
2022-12-18T01:03:49.808Z,102765.78
2022-12-18T01:06:18.444Z,102763.09
2022-12-18T01:08:46.654Z,102771.75
2022-12-18T01:11:17.277Z,102769.16
2022-12-18T01:13:45.593Z,102768.25
2022-12-18T01:16:13.707Z,102759.56
2022-12-18T01:18:42.871Z,102767.31
2022-12-18T01:21:12.364Z,102770.75
2022-12-18T01:23:40.665Z,102767.22
2022-12-18T01:26:10.427Z,102768.88
2022-12-18T01:28:38.341Z,102769.72
2022-12-18T01:31:15.289Z,102774.81
2022-12-18T01:33:44.500Z,102772.22
2022-12-18T01:36:17.567Z,102776.47
2022-12-18T01:38:45.777Z,102780.81
2022-12-18T01:41:14.069Z,102779.97
2022-12-18T01:43:46.868Z,102778.19
2022-12-18T01:46:14.888Z,102772.16
2022-12-18T01:48:44.499Z,102789.41
2022-12-18T01:51:13.100Z,102795.53
2022-12-18T01:53:43.446Z,102793.88
2022-12-18T01:56:15.392Z,102799.88
2022-12-18T01:58:50.700Z,102806.84
2022-12-18T02:01:19.240Z,102799.97
2022-12-18T02:03:48.286Z,102802.63
2022-12-18T02:06:21.062Z,102808.75
2022-12-18T02:09:03.651Z,102810.56
2022-12-18T02:11:42.156Z,102821.81
2022-12-18T02:14:20.312Z,102816.69
2022-12-18T02:16:54.940Z,102819.28
2022-12-18T02:19:49.387Z,102817.56
2022-12-18T02:22:28.388Z,102818.41
2022-12-18T02:25:07.413Z,102817.53
2022-12-18T02:27:40.033Z,102805.38
2022-12-18T02:30:09.316Z,102803.69
2022-12-18T02:32:41.847Z,102808.91
2022-12-18T02:35:14.718Z,102796.00
2022-12-18T02:37:45.320Z,102797.72
2022-12-18T02:40:15.826Z,102803.78
2022-12-18T02:42:44.961Z,102792.50
2022-12-18T02:45:13.068Z,102794.19
2022-12-18T02:47:44.116Z,102794.13
2022-12-18T02:50:20.062Z,102793.25
2022-12-18T02:52:54.897Z,102797.50
2022-12-18T02:55:33.563Z,102792.25
2022-12-18T02:58:07.698Z,102794.91
2022-12-18T03:00:40.415Z,102795.78
2022-12-18T03:03:14.475Z,102791.53
2022-12-18T03:05:46.119Z,102799.31
2022-12-18T03:08:18.982Z,102814.97
2022-12-18T03:10:53.279Z,102818.47
2022-12-18T03:13:28.446Z,102828.88
2022-12-18T03:15:58.845Z,102829.75
2022-12-18T03:18:31.936Z,102830.69
2022-12-18T03:21:05.659Z,102822.97
2022-12-18T03:23:41.717Z,102820.38
2022-12-18T03:26:12.503Z,102818.63
2022-12-18T03:28:46.152Z,102818.72
2022-12-18T03:31:16.007Z,102818.72
2022-12-18T03:33:48.375Z,102815.25
2022-12-18T03:36:17.365Z,102805.72
2022-12-18T03:38:45.060Z,102800.53
2022-12-18T03:41:18.752Z,102798.84
2022-12-18T03:43:53.948Z,102794.59
2022-12-18T03:46:29.450Z,102797.19
2022-12-18T03:49:03.539Z,102799.84
2022-12-18T03:51:41.295Z,102806.84
2022-12-18T03:54:11.964Z,102805.16
2022-12-18T03:56:44.015Z,102814.63
2022-12-18T03:59:14.956Z,102812.97
2022-12-18T04:01:45.915Z,102816.44
2022-12-18T04:04:16.276Z,102825.94
2022-12-18T04:06:45.707Z,102820.75
2022-12-18T04:09:13.829Z,102829.53
2022-12-18T04:11:43.152Z,102825.22
2022-12-18T04:14:14.376Z,102827.88
2022-12-18T04:16:46.537Z,102825.31
2022-12-18T04:19:14.487Z,102828.84
2022-12-18T04:21:42.166Z,102834.94
2022-12-18T04:24:09.882Z,102837.56
2022-12-18T04:26:37.464Z,102854.91
2022-12-18T04:29:05.164Z,102851.50
2022-12-18T04:31:32.909Z,102851.53
2022-12-18T04:34:02.918Z,102859.31
2022-12-18T04:36:30.679Z,102855.03
2022-12-18T04:38:58.309Z,102861.91
2022-12-18T04:41:25.936Z,102860.19
2022-12-18T04:43:53.497Z,102868.88
2022-12-18T04:46:21.124Z,102860.25
2022-12-18T04:48:49.010Z,102859.38
2022-12-18T04:51:20.925Z,102851.66
2022-12-18T04:53:54.324Z,102862.91
2022-12-18T04:56:21.994Z,102855.13
2022-12-18T04:58:49.616Z,102862.97
2022-12-18T05:01:19.531Z,102861.25
2022-12-18T05:03:47.279Z,102844.88
2022-12-18T05:06:15.004Z,102853.59
2022-12-18T05:08:45.018Z,102851.88
2022-12-18T05:11:16.569Z,102847.56
2022-12-18T05:13:45.297Z,102840.69
2022-12-18T05:16:13.009Z,102845.94
2022-12-18T05:18:40.750Z,102854.59
2022-12-18T05:21:08.343Z,102858.13
2022-12-18T05:23:35.908Z,102857.25
2022-12-18T05:26:08.607Z,102860.72
2022-12-18T05:28:38.069Z,102863.38
2022-12-18T05:31:06.855Z,102866.00
2022-12-18T05:33:36.724Z,102872.06
2022-12-18T05:36:06.804Z,102873.81
2022-12-18T05:38:36.215Z,102881.63
2022-12-18T05:41:06.279Z,102883.38
2022-12-18T05:43:36.179Z,102888.63
2022-12-18T05:46:06.343Z,102887.78
2022-12-18T05:48:33.973Z,102889.63
2022-12-18T05:51:07.066Z,102893.88
2022-12-18T05:53:34.857Z,102880.97
2022-12-18T05:56:03.545Z,102879.19
2022-12-18T05:58:33.573Z,102882.66
2022-12-18T06:01:09.197Z,102887.81
2022-12-18T06:03:36.844Z,102886.09
2022-12-18T06:06:04.988Z,102878.25
2022-12-18T06:08:32.740Z,102891.22
2022-12-18T06:11:00.292Z,102889.50
2022-12-18T06:13:27.866Z,102892.06
2022-12-18T06:15:56.768Z,102891.22
2022-12-18T06:18:24.619Z,102886.88
2022-12-18T06:20:57.612Z,102879.06
2022-12-18T06:23:25.341Z,102883.38
2022-12-18T06:25:53.380Z,102884.25
2022-12-18T06:28:21.107Z,102884.31
2022-12-18T06:30:50.203Z,102895.53
2022-12-18T06:33:19.147Z,102896.34
2022-12-18T06:35:46.822Z,102898.94
2022-12-18T06:38:14.488Z,102906.72
2022-12-18T06:40:42.084Z,102907.59
2022-12-18T06:43:09.828Z,102911.03
2022-12-18T06:45:37.461Z,102918.00
2022-12-18T06:48:05.236Z,102922.28
2022-12-18T06:50:34.527Z,102923.13
2022-12-18T06:53:02.072Z,102928.25
2022-12-18T06:55:30.172Z,102936.91
2022-12-18T06:57:58.517Z,102932.59
2022-12-18T07:00:26.073Z,102930.91
2022-12-18T07:02:53.666Z,102935.25
2022-12-18T07:05:21.516Z,102936.16
2022-12-18T07:07:50.404Z,102942.22
2022-12-18T07:10:18.271Z,102952.59
2022-12-18T07:12:45.983Z,102956.13
2022-12-18T07:15:13.852Z,102953.53
2022-12-18T07:17:41.625Z,102957.00
2022-12-18T07:20:10.712Z,102944.88
2022-12-18T07:22:38.681Z,102958.75
2022-12-18T07:25:09.525Z,102954.44
2022-12-18T07:27:37.084Z,102955.31
2022-12-18T07:30:05.858Z,102962.25
2022-12-18T07:32:33.932Z,102960.50
2022-12-18T07:35:01.537Z,102968.22
2022-12-18T07:37:29.116Z,102972.53
2022-12-18T07:39:56.759Z,102971.59
2022-12-18T07:42:35.738Z,102972.41
2022-12-18T07:45:04.017Z,102975.81
2022-12-18T07:47:36.910Z,102981.78
2022-12-18T07:50:05.132Z,102973.91
2022-12-18T07:52:32.781Z,102982.50
2022-12-18T07:55:01.052Z,102984.13
2022-12-18T08:00:18.212Z,102992.59
2022-12-18T08:02:45.864Z,102993.34
2022-12-18T08:05:14.253Z,102991.56
2022-12-18T08:07:41.896Z,102993.09
2022-12-18T08:10:10.297Z,102992.09
2022-12-18T08:12:39.596Z,102997.16
2022-12-18T08:15:08.415Z,102991.72
2022-12-18T08:17:36.025Z,102991.59
2022-12-18T08:20:03.852Z,102984.53
2022-12-18T08:22:31.757Z,102980.91
2022-12-18T08:24:59.312Z,102972.06
2022-12-18T08:27:29.715Z,102974.56
2022-12-18T08:29:59.584Z,102974.50
2022-12-18T08:32:28.570Z,102970.09
2022-12-18T08:34:56.338Z,102969.88
2022-12-18T08:37:23.880Z,102958.47
2022-12-18T08:39:51.468Z,102966.97
2022-12-18T08:42:36.443Z,102960.81
2022-12-18T08:45:05.928Z,102965.09
2022-12-18T08:47:33.509Z,102955.47
2022-12-18T08:50:01.102Z,102964.06
2022-12-18T08:52:29.196Z,102962.25
2022-12-18T08:54:56.772Z,102962.03
2022-12-18T08:57:24.336Z,102965.41
2022-12-18T08:59:52.411Z,102966.09
2022-12-18T09:02:21.594Z,102972.81
2022-12-18T09:04:55.457Z,102969.88
2022-12-18T09:07:24.839Z,102973.09
2022-12-18T09:09:52.390Z,102977.09
2022-12-18T09:12:20.549Z,102971.13
2022-12-18T09:14:48.865Z,102977.22
2022-12-18T09:17:16.602Z,102970.00
2022-12-18T09:19:45.621Z,102966.28
2022-12-18T09:22:13.649Z,102965.25
2022-12-18T09:24:41.596Z,102958.13
2022-12-18T09:27:09.245Z,102960.72
2022-12-18T09:29:36.858Z,102957.84
2022-12-18T09:32:04.499Z,102961.84
2022-12-18T09:34:32.110Z,102966.78
2022-12-18T09:37:01.141Z,102965.94
2022-12-18T09:39:28.732Z,102974.38
2022-12-18T09:41:59.809Z,102981.16
2022-12-18T09:44:30.681Z,102974.81
2022-12-18T09:47:14.717Z,102981.28
2022-12-18T09:49:45.217Z,102980.13
2022-12-18T09:52:20.983Z,102985.72
2022-12-18T09:54:53.858Z,102984.63
2022-12-18T09:57:23.565Z,102984.53
2022-12-18T09:59:57.029Z,102995.50
2022-12-18T10:02:27.014Z,102996.03
2022-12-18T10:05:06.889Z,102994.84
2022-12-18T10:07:48.788Z,102998.38
2022-12-18T10:10:28.625Z,103000.13
2022-12-18T10:13:05.091Z,102998.84
2022-12-18T10:15:38.378Z,102995.81
2022-12-18T10:18:22.208Z,102990.28
2022-12-18T10:20:53.579Z,103005.13
2022-12-18T10:23:29.576Z,103007.84
2022-12-18T10:26:02.888Z,103011.09
2022-12-18T10:28:32.631Z,103013.66
2022-12-18T10:31:00.704Z,103012.25
2022-12-18T10:33:32.868Z,103000.78
2022-12-18T10:36:01.060Z,103000.47
2022-12-18T10:38:31.205Z,102996.94
2022-12-18T10:41:00.968Z,102995.38
2022-12-18T10:43:30.071Z,103000.91
2022-12-18T10:46:19.367Z,102986.59
2022-12-18T10:48:54.696Z,102992.94
2022-12-18T10:51:25.120Z,102976.09
2022-12-18T10:54:01.322Z,102982.97
2022-12-18T10:56:32.543Z,102980.22
2022-12-18T10:59:02.771Z,102969.91
2022-12-18T11:01:48.216Z,102972.47
2022-12-18T11:04:21.017Z,102975.06
2022-12-18T11:06:57.681Z,102988.00
2022-12-18T11:09:28.413Z,102980.09
2022-12-18T11:11:58.002Z,102965.34
2022-12-18T11:14:28.473Z,102969.81
2022-12-18T11:17:24.302Z,102969.47
2022-12-18T11:19:45.998Z,102958.28
2022-12-18T11:22:22.742Z,102957.78
2022-12-18T11:25:29.979Z,102971.94
2022-12-18T11:27:51.349Z,102966.19
2022-12-18T11:30:25.164Z,102971.63
2022-12-18T11:32:57.979Z,102966.75
2022-12-18T11:35:36.684Z,102975.19
2022-12-18T11:38:12.940Z,102963.03
2022-12-18T11:40:46.217Z,102961.09
2022-12-18T11:43:19.311Z,102960.22
2022-12-18T11:45:54.629Z,102965.19
2022-12-18T11:48:27.683Z,102955.97
2022-12-18T11:50:57.414Z,102945.56
2022-12-18T11:53:26.215Z,102952.03
2022-12-18T11:56:14.465Z,102960.03
2022-12-18T11:58:49.042Z,102963.09
2022-12-18T12:01:43.693Z,102940.38
2022-12-18T12:04:36.409Z,102936.25
2022-12-18T12:07:18.298Z,102935.47
2022-12-18T12:09:55.281Z,102938.19
2022-12-18T12:12:48.559Z,102942.69
2022-12-18T12:15:28.533Z,102934.34
2022-12-18T12:18:05.783Z,102930.16
2022-12-18T12:20:49.844Z,102934.78
2022-12-18T12:23:27.860Z,102935.06
2022-12-18T12:26:01.769Z,102924.63
2022-12-18T12:28:52.901Z,102915.19
2022-12-18T12:31:29.259Z,102915.78
2022-12-18T12:34:07.478Z,102906.00
2022-12-18T12:36:44.408Z,102893.69
2022-12-18T12:39:16.377Z,102896.47
2022-12-18T12:42:04.614Z,102881.78
2022-12-18T12:44:39.779Z,102870.69
2022-12-18T12:47:16.598Z,102851.69
2022-12-18T12:49:49.967Z,102842.03
2022-12-18T12:52:27.689Z,102836.22
2022-12-18T12:54:56.239Z,102838.25
2022-12-18T12:57:31.492Z,102836.13
2022-12-18T13:00:05.261Z,102850.75
2022-12-18T13:02:37.757Z,102850.72
2022-12-18T13:05:14.118Z,102863.31
2022-12-18T13:07:47.857Z,102864.94
2022-12-18T13:10:34.203Z,102867.94
2022-12-18T13:13:03.601Z,102873.94
2022-12-18T13:15:40.636Z,102866.09
2022-12-18T13:18:20.575Z,102855.88
2022-12-18T13:20:55.311Z,102857.75
2022-12-18T13:23:33.665Z,102859.78
2022-12-18T13:26:02.152Z,102858.34
2022-12-18T13:28:52.916Z,102858.06
2022-12-18T13:31:53.889Z,102861.09
2022-12-18T13:34:27.403Z,102861.75
2022-12-18T13:36:58.294Z,102882.00
2022-12-18T13:39:35.123Z,102875.53
2022-12-18T13:43:06.297Z,102881.22
2022-12-18T13:45:40.907Z,102881.97
2022-12-18T13:48:18.597Z,102881.56
2022-12-18T13:50:57.317Z,102877.78
2022-12-18T13:53:29.540Z,102882.78
2022-12-18T13:55:57.929Z,102886.97
2022-12-18T13:58:25.860Z,102892.56
2022-12-18T14:00:53.504Z,102886.91
2022-12-18T14:03:24.673Z,102883.03
2022-12-18T14:06:01.773Z,102892.25
2022-12-18T14:08:35.153Z,102874.44
2022-12-18T14:11:05.575Z,102870.34
2022-12-18T14:13:35.969Z,102858.50
2022-12-18T14:16:06.313Z,102855.22
2022-12-18T14:18:44.962Z,102862.47
2022-12-18T14:21:22.968Z,102862.72
2022-12-18T14:23:50.993Z,102857.94
2022-12-18T14:26:25.451Z,102865.97
2022-12-18T14:28:54.800Z,102872.34
2022-12-18T14:31:24.414Z,102864.72
2022-12-18T14:33:52.746Z,102857.94
2022-12-18T14:36:23.477Z,102855.47
2022-12-18T14:38:54.580Z,102851.38
2022-12-18T14:41:23.478Z,102851.38
2022-12-18T14:43:53.185Z,102851.38
2022-12-18T14:46:32.120Z,102851.38
2022-12-18T14:49:00.309Z,102851.38
2022-12-18T14:51:32.828Z,102851.38
2022-12-18T14:54:02.356Z,102851.38
2022-12-18T14:56:32.005Z,102851.38
2022-12-18T14:59:02.200Z,102851.38
2022-12-18T15:01:33.736Z,102851.38
2022-12-18T15:04:02.813Z,102851.38
2022-12-18T15:06:37.152Z,102851.38
2022-12-18T15:09:07.562Z,102851.38
2022-12-18T15:11:47.493Z,102851.38
2022-12-18T15:14:26.733Z,102851.38
2022-12-18T15:16:56.528Z,102851.38
2022-12-18T15:19:30.547Z,102851.38
2022-12-18T15:22:05.909Z,102851.38
2022-12-18T15:24:34.974Z,102851.38
2022-12-18T15:27:03.152Z,102851.38
2022-12-18T15:29:30.786Z,102851.38
2022-12-18T15:32:04.174Z,102851.38
2022-12-18T15:34:32.236Z,102851.38
2022-12-18T15:37:01.532Z,102851.38
2022-12-18T15:39:29.272Z,102851.38
2022-12-18T15:42:14.491Z,102851.38
2022-12-18T15:44:42.058Z,102851.38
2022-12-18T15:47:14.595Z,102851.38
2022-12-18T15:49:42.317Z,102851.38
2022-12-18T15:52:15.212Z,102851.38
2022-12-18T15:55:00.463Z,102851.38
2022-12-18T15:57:28.509Z,102851.38
2022-12-18T15:59:58.893Z,102851.38
2022-12-18T16:02:27.196Z,102851.38
2022-12-18T16:04:55.438Z,102851.38
2022-12-18T16:07:28.197Z,102851.38
2022-12-18T16:09:58.885Z,102851.38
2022-12-18T16:12:28.300Z,102851.38
2022-12-18T16:14:55.997Z,102851.38
2022-12-18T16:17:23.587Z,102851.38
2022-12-18T16:19:51.285Z,102851.38
2022-12-18T16:22:23.377Z,102851.38
2022-12-18T16:24:53.319Z,102851.38
2022-12-18T16:27:21.508Z,102851.38
2022-12-18T16:29:49.101Z,102851.38
2022-12-18T16:32:18.649Z,102851.38
2022-12-18T16:34:47.356Z,102851.38
2022-12-18T16:37:16.574Z,102851.38
2022-12-18T16:39:44.969Z,102851.38
2022-12-18T16:42:17.800Z,102851.38
2022-12-18T16:44:46.320Z,102851.38
2022-12-18T16:47:15.324Z,102851.38
2022-12-18T16:49:43.425Z,102851.38
2022-12-18T16:52:11.024Z,102851.38
2022-12-18T16:54:38.682Z,102851.38
2022-12-18T16:57:06.370Z,102851.38
2022-12-18T16:59:35.476Z,102851.38
2022-12-18T17:02:07.234Z,102851.38
2022-12-18T17:04:34.921Z,102851.38
2022-12-18T17:07:04.549Z,102851.38
2022-12-18T17:09:32.147Z,102851.38
2022-12-18T17:12:03.980Z,102851.38
2022-12-18T17:14:33.763Z,102851.38
2022-12-18T17:19:50.994Z,102851.38
2022-12-18T17:22:18.618Z,102851.38
2022-12-18T17:24:47.301Z,102851.38
2022-12-18T17:27:14.899Z,102671.16
2022-12-18T17:29:47.415Z,102673.66
2022-12-18T17:32:17.904Z,102670.16
2022-12-18T17:34:46.044Z,102670.16
2022-12-18T17:37:13.732Z,102679.41
2022-12-18T17:39:41.968Z,102670.59
2022-12-18T17:42:10.894Z,102670.59
2022-12-18T17:44:43.404Z,102653.75
2022-12-18T17:47:12.876Z,102659.72
2022-12-18T17:49:41.929Z,102659.72
2022-12-18T17:52:09.620Z,102636.91
2022-12-18T17:54:39.572Z,102630.69
2022-12-18T17:57:07.337Z,102624.47
2022-12-18T17:59:35.009Z,102620.81
2022-12-18T18:02:02.783Z,102615.56
2022-12-18T18:04:30.526Z,102610.28
2022-12-18T18:06:59.466Z,102604.19
2022-12-18T18:09:27.379Z,102599.78
2022-12-18T18:12:12.595Z,102601.47
2022-12-18T18:14:40.225Z,102594.53
2022-12-18T18:17:08.168Z,102588.44
2022-12-18T18:19:35.844Z,102586.63
2022-12-18T18:22:04.911Z,102586.63
2022-12-18T18:24:34.493Z,102586.63
2022-12-18T18:27:02.187Z,102586.63
2022-12-18T18:29:31.229Z,102560.53
2022-12-18T18:31:59.508Z,102560.53
2022-12-18T18:34:28.944Z,102560.53
2022-12-18T18:36:56.657Z,102561.50
2022-12-18T18:39:25.988Z,102549.22
2022-12-18T18:41:53.645Z,102537.97
2022-12-18T18:44:26.179Z,102537.16
2022-12-18T18:46:55.107Z,102544.91
2022-12-18T18:49:24.090Z,102542.34
2022-12-18T18:51:51.981Z,102527.53
2022-12-18T18:54:19.546Z,102526.72
2022-12-18T18:57:19.275Z,102513.59
2022-12-18T18:59:36.963Z,102513.53
2022-12-18T19:02:05.183Z,102515.28
2022-12-18T19:04:33.590Z,102505.97
2022-12-18T19:07:01.451Z,102503.97
2022-12-18T19:09:29.383Z,102486.53
2022-12-18T19:12:16.635Z,102486.53
2022-12-18T19:14:44.588Z,102494.94
2022-12-18T19:17:12.222Z,102481.84
2022-12-18T19:19:40.107Z,102478.31
2022-12-18T19:22:07.921Z,102478.31
2022-12-18T19:24:36.554Z,102478.31
2022-12-18T19:27:05.645Z,102478.31
2022-12-18T19:29:33.218Z,102478.31
2022-12-18T19:32:01.048Z,102437.66
2022-12-18T19:34:28.714Z,102437.66
2022-12-18T19:36:59.731Z,102443.59
2022-12-18T19:39:27.804Z,102443.59
2022-12-18T19:41:55.422Z,102439.03
2022-12-18T19:44:24.353Z,102439.03
2022-12-18T19:46:52.569Z,102439.03
2022-12-18T19:49:20.184Z,102441.22
2022-12-18T19:51:50.291Z,102441.22
2022-12-18T19:54:18.554Z,102441.22
2022-12-18T19:56:47.260Z,102433.03
2022-12-18T19:59:15.581Z,102432.91
2022-12-18T20:01:44.574Z,102431.06
2022-12-18T20:04:12.293Z,102431.06
2022-12-18T20:06:49.203Z,102431.06
2022-12-18T20:09:17.509Z,102403.00
2022-12-18T20:11:45.869Z,102403.00
2022-12-18T20:14:16.114Z,102403.81
2022-12-18T20:16:53.425Z,102397.63
2022-12-18T20:19:22.174Z,102394.06
2022-12-18T20:21:50.253Z,102392.28
2022-12-18T20:24:17.928Z,102392.28
2022-12-18T20:26:45.563Z,102392.28
2022-12-18T20:29:13.136Z,102392.28
2022-12-18T20:31:41.583Z,102392.28
2022-12-18T20:34:10.564Z,102392.28
2022-12-18T20:36:41.074Z,102392.28
2022-12-18T20:39:12.147Z,102392.28
2022-12-18T20:41:39.974Z,102392.28
2022-12-18T20:44:10.281Z,102392.28
2022-12-18T20:46:50.116Z,102392.28
2022-12-18T20:49:19.179Z,102392.28
2022-12-18T20:51:47.033Z,102392.28
2022-12-18T20:54:14.620Z,102392.28
2022-12-18T20:56:42.618Z,102392.28
2022-12-18T20:59:10.594Z,81099.38
2022-12-18T21:01:40.260Z,102392.28
2022-12-18T21:04:17.408Z,102392.28
2022-12-18T21:06:52.381Z,81099.38
2022-12-18T21:09:22.167Z,102392.28
2022-12-18T21:12:08.096Z,102392.28
2022-12-18T21:14:38.549Z,102392.28
2022-12-18T21:17:06.486Z,102392.28
2022-12-18T21:19:34.109Z,102392.28
2022-12-18T21:22:03.330Z,102392.28
2022-12-18T21:24:32.804Z,102392.28
2022-12-18T21:27:00.679Z,102392.28
2022-12-18T21:29:28.729Z,102392.28
2022-12-18T21:31:56.660Z,102392.28
2022-12-18T21:34:26.559Z,102392.28
2022-12-18T21:36:55.217Z,102392.28
2022-12-18T21:39:24.961Z,102392.28
2022-12-18T21:42:10.498Z,102392.28
2022-12-18T21:44:41.986Z,102392.28
2022-12-18T21:47:21.893Z,102392.28
2022-12-18T21:49:51.547Z,102392.28
2022-12-18T21:52:19.248Z,102392.28
2022-12-18T21:54:48.270Z,102392.28
2022-12-18T21:57:15.900Z,102392.28
2022-12-18T21:59:44.187Z,102392.28
2022-12-18T22:02:14.079Z,65034.22
2022-12-18T22:04:43.036Z,65034.22
2022-12-18T22:07:11.657Z,65034.22
2022-12-18T22:09:39.605Z,65034.22
2022-12-18T22:12:09.904Z,65034.22
2022-12-18T22:14:37.541Z,65034.22
2022-12-18T22:17:05.181Z,65034.22
2022-12-18T22:19:35.696Z,65034.22
2022-12-18T22:22:08.745Z,65034.22
2022-12-18T22:24:36.295Z,65034.22
2022-12-18T22:27:03.931Z,65034.22
2022-12-18T22:29:50.561Z,65034.22
2022-12-18T22:32:30.911Z,65034.22
2022-12-18T22:35:05.806Z,65034.22
2022-12-18T22:37:35.102Z,65034.22
2022-12-18T22:40:03.233Z,65034.22
2022-12-18T22:42:31.620Z,65034.22
2022-12-18T22:45:00.796Z,65034.22
2022-12-18T22:47:30.364Z,65034.22
2022-12-18T22:49:58.856Z,65034.22
2022-12-18T22:52:26.460Z,65034.22
2022-12-18T22:54:54.532Z,65034.22
2022-12-18T22:57:23.210Z,65034.22
2022-12-18T22:59:51.209Z,65034.22
2022-12-18T23:02:20.698Z,65034.22
2022-12-18T23:04:48.504Z,65034.22
2022-12-18T23:07:19.721Z,65034.22
2022-12-18T23:09:48.348Z,65034.22
2022-12-18T23:12:18.414Z,65034.22
2022-12-18T23:14:47.058Z,65034.22
2022-12-18T23:17:14.877Z,65034.22
2022-12-18T23:19:48.847Z,65034.22
2022-12-18T23:22:16.906Z,65034.22
2022-12-18T23:24:44.617Z,65034.22
2022-12-18T23:27:12.369Z,65034.22
2022-12-18T23:29:40.920Z,65034.22
2022-12-18T23:32:09.166Z,65034.22
2022-12-18T23:34:36.727Z,65034.22
2022-12-18T23:37:05.656Z,65034.22
2022-12-18T23:39:33.275Z,65034.22
2022-12-18T23:42:01.494Z,65034.22
2022-12-18T23:44:29.140Z,65034.22
2022-12-18T23:46:57.296Z,65034.22
2022-12-18T23:49:24.953Z,65034.22
2022-12-18T23:51:54.744Z,65034.22
2022-12-18T23:54:32.862Z,65034.22
2022-12-18T23:57:01.558Z,65034.22
2022-12-18T23:59:29.155Z,65034.22
